sensor_id;sensor_type;location;lat;lon;timestamp;temperature;humidity
64143;DHT22;50437;51.970;5.904;2023-09-19T00:29:17;15.10;99.90
64143;DHT22;50437;51.970;5.904;2023-09-19T00:43:57;15.10;99.90
64143;DHT22;50437;51.970;5.904;2023-09-19T00:50:05;15.10;99.90
64143;DHT22;50437;51.970;5.904;2023-09-19T00:53:45;15.10;99.90
64143;DHT22;50437;51.970;5.904;2023-09-19T00:56:36;15.10;99.90
64143;DHT22;50437;51.970;5.904;2023-09-19T00:59:37;15.00;99.90
64143;DHT22;50437;51.970;5.904;2023-09-19T01:02:04;15.10;99.90
64143;DHT22;50437;51.970;5.904;2023-09-19T01:05:45;15.00;99.90
64143;DHT22;50437;51.970;5.904;2023-09-19T01:15:06;15.00;99.90
64143;DHT22;50437;51.970;5.904;2023-09-19T01:28:24;14.90;99.90
64143;DHT22;50437;51.970;5.904;2023-09-19T01:35:43;14.90;99.90
64143;DHT22;50437;51.970;5.904;2023-09-19T01:38:36;14.90;99.90
64143;DHT22;50437;51.970;5.904;2023-09-19T01:42:04;14.80;99.90
64143;DHT22;50437;51.970;5.904;2023-09-19T01:55:22;14.90;99.90
64143;DHT22;50437;51.970;5.904;2023-09-19T01:58:26;14.90;99.90
64143;DHT22;50437;51.970;5.904;2023-09-19T02:12:00;14.80;99.90
64143;DHT22;50437;51.970;5.904;2023-09-19T02:14:56;14.80;99.90
64143;DHT22;50437;51.970;5.904;2023-09-19T02:17:23;14.70;99.90
64143;DHT22;50437;51.970;5.904;2023-09-19T02:19:54;14.60;99.90
64143;DHT22;50437;51.970;5.904;2023-09-19T02:22:44;14.50;99.90
64143;DHT22;50437;51.970;5.904;2023-09-19T02:25:54;14.40;99.90
64143;DHT22;50437;51.970;5.904;2023-09-19T02:28:24;14.50;99.90
64143;DHT22;50437;51.970;5.904;2023-09-19T02:31:02;14.40;99.90
64143;DHT22;50437;51.970;5.904;2023-09-19T02:40:25;14.40;99.90
64143;DHT22;50437;51.970;5.904;2023-09-19T02:42:54;14.20;99.90
64143;DHT22;50437;51.970;5.904;2023-09-19T02:45:29;14.20;99.90
64143;DHT22;50437;51.970;5.904;2023-09-19T02:48:06;14.20;99.90
64143;DHT22;50437;51.970;5.904;2023-09-19T02:50:55;14.20;99.90
64143;DHT22;50437;51.970;5.904;2023-09-19T02:53:29;14.10;99.90
64143;DHT22;50437;51.970;5.904;2023-09-19T02:56:24;14.00;99.90
64143;DHT22;50437;51.970;5.904;2023-09-19T02:58:55;14.00;99.90
64143;DHT22;50437;51.970;5.904;2023-09-19T03:01:23;14.00;99.90
64143;DHT22;50437;51.970;5.904;2023-09-19T03:04:18;13.90;99.90
64143;DHT22;50437;51.970;5.904;2023-09-19T03:06:47;13.90;99.90
64143;DHT22;50437;51.970;5.904;2023-09-19T03:09:22;13.80;99.90
64143;DHT22;50437;51.970;5.904;2023-09-19T03:11:54;13.90;99.90
64143;DHT22;50437;51.970;5.904;2023-09-19T03:14:42;13.80;99.90
64143;DHT22;50437;51.970;5.904;2023-09-19T03:17:34;13.80;99.90
64143;DHT22;50437;51.970;5.904;2023-09-19T03:20:03;13.80;99.90
64143;DHT22;50437;51.970;5.904;2023-09-19T03:22:38;13.70;99.90
64143;DHT22;50437;51.970;5.904;2023-09-19T03:25:15;13.70;99.90
64143;DHT22;50437;51.970;5.904;2023-09-19T03:28:02;13.70;99.90
64143;DHT22;50437;51.970;5.904;2023-09-19T03:30:43;13.60;99.90
64143;DHT22;50437;51.970;5.904;2023-09-19T03:33:13;13.60;99.90
64143;DHT22;50437;51.970;5.904;2023-09-19T03:35:45;13.60;99.90
64143;DHT22;50437;51.970;5.904;2023-09-19T03:38:27;13.50;99.90
64143;DHT22;50437;51.970;5.904;2023-09-19T03:41:14;13.60;99.90
64143;DHT22;50437;51.970;5.904;2023-09-19T03:43:45;13.50;99.90
64143;DHT22;50437;51.970;5.904;2023-09-19T03:46:13;13.50;99.90
64143;DHT22;50437;51.970;5.904;2023-09-19T03:49:03;13.40;99.90
64143;DHT22;50437;51.970;5.904;2023-09-19T03:51:30;13.60;99.90
64143;DHT22;50437;51.970;5.904;2023-09-19T03:53:57;13.60;99.90
64143;DHT22;50437;51.970;5.904;2023-09-19T03:56:24;13.50;99.90
64143;DHT22;50437;51.970;5.904;2023-09-19T03:58:58;13.50;99.90
64143;DHT22;50437;51.970;5.904;2023-09-19T04:01:25;13.40;99.90
64143;DHT22;50437;51.970;5.904;2023-09-19T04:03:53;13.40;99.90
64143;DHT22;50437;51.970;5.904;2023-09-19T04:06:19;13.30;99.90
64143;DHT22;50437;51.970;5.904;2023-09-19T04:08:46;13.40;99.90
64143;DHT22;50437;51.970;5.904;2023-09-19T04:11:14;13.40;99.90
64143;DHT22;50437;51.970;5.904;2023-09-19T04:13:47;13.40;99.90
64143;DHT22;50437;51.970;5.904;2023-09-19T04:16:20;13.30;99.90
64143;DHT22;50437;51.970;5.904;2023-09-19T04:18:58;13.40;99.90
64143;DHT22;50437;51.970;5.904;2023-09-19T04:21:24;13.30;99.90
64143;DHT22;50437;51.970;5.904;2023-09-19T04:23:58;13.40;99.90
64143;DHT22;50437;51.970;5.904;2023-09-19T04:27:08;13.40;99.90
64143;DHT22;50437;51.970;5.904;2023-09-19T04:29:36;13.40;99.90
64143;DHT22;50437;51.970;5.904;2023-09-19T04:32:05;13.40;99.90
64143;DHT22;50437;51.970;5.904;2023-09-19T04:34:58;13.40;99.90
64143;DHT22;50437;51.970;5.904;2023-09-19T04:37:42;13.40;99.90
64143;DHT22;50437;51.970;5.904;2023-09-19T04:40:09;13.30;99.90
64143;DHT22;50437;51.970;5.904;2023-09-19T04:42:41;13.40;99.90
64143;DHT22;50437;51.970;5.904;2023-09-19T04:45:26;13.40;99.90
64143;DHT22;50437;51.970;5.904;2023-09-19T04:48:04;13.40;99.90
64143;DHT22;50437;51.970;5.904;2023-09-19T04:50:35;13.40;99.90
64143;DHT22;50437;51.970;5.904;2023-09-19T04:53:27;13.40;99.90
64143;DHT22;50437;51.970;5.904;2023-09-19T04:56:05;13.40;99.90
64143;DHT22;50437;51.970;5.904;2023-09-19T04:58:37;13.40;99.90
64143;DHT22;50437;51.970;5.904;2023-09-19T05:01:03;13.40;99.90
64143;DHT22;50437;51.970;5.904;2023-09-19T05:03:32;13.40;99.90
64143;DHT22;50437;51.970;5.904;2023-09-19T05:06:37;13.40;99.90
64143;DHT22;50437;51.970;5.904;2023-09-19T05:09:15;13.40;99.90
64143;DHT22;50437;51.970;5.904;2023-09-19T05:11:48;13.30;99.90
64143;DHT22;50437;51.970;5.904;2023-09-19T05:14:14;13.30;99.90
64143;DHT22;50437;51.970;5.904;2023-09-19T05:16:44;13.30;99.90
64143;DHT22;50437;51.970;5.904;2023-09-19T05:19:28;13.30;99.90
64143;DHT22;50437;51.970;5.904;2023-09-19T05:21:57;13.40;99.90
64143;DHT22;50437;51.970;5.904;2023-09-19T05:24:25;13.40;99.90
64143;DHT22;50437;51.970;5.904;2023-09-19T05:27:02;13.40;99.90
64143;DHT22;50437;51.970;5.904;2023-09-19T05:29:35;13.40;99.90
64143;DHT22;50437;51.970;5.904;2023-09-19T05:32:01;13.40;99.90
64143;DHT22;50437;51.970;5.904;2023-09-19T05:34:33;13.50;99.90
64143;DHT22;50437;51.970;5.904;2023-09-19T05:37:05;13.50;99.90
64143;DHT22;50437;51.970;5.904;2023-09-19T05:39:39;13.50;99.90
64143;DHT22;50437;51.970;5.904;2023-09-19T05:42:12;13.60;99.90
64143;DHT22;50437;51.970;5.904;2023-09-19T05:44:43;13.60;99.90
64143;DHT22;50437;51.970;5.904;2023-09-19T05:47:11;13.60;99.90
64143;DHT22;50437;51.970;5.904;2023-09-19T05:49:38;13.60;99.90
64143;DHT22;50437;51.970;5.904;2023-09-19T05:52:05;13.60;99.90
64143;DHT22;50437;51.970;5.904;2023-09-19T05:54:37;13.60;99.90
64143;DHT22;50437;51.970;5.904;2023-09-19T05:57:03;13.70;99.90
64143;DHT22;50437;51.970;5.904;2023-09-19T05:59:30;13.70;99.90
64143;DHT22;50437;51.970;5.904;2023-09-19T06:02:04;13.70;99.90
64143;DHT22;50437;51.970;5.904;2023-09-19T06:04:32;13.80;99.90
64143;DHT22;50437;51.970;5.904;2023-09-19T06:06:59;13.80;99.90
64143;DHT22;50437;51.970;5.904;2023-09-19T06:09:27;13.80;99.90
64143;DHT22;50437;51.970;5.904;2023-09-19T06:11:54;13.90;99.90
64143;DHT22;50437;51.970;5.904;2023-09-19T06:14:21;13.90;99.90
64143;DHT22;50437;51.970;5.904;2023-09-19T06:16:55;13.90;99.90
64143;DHT22;50437;51.970;5.904;2023-09-19T06:19:30;13.90;99.90
64143;DHT22;50437;51.970;5.904;2023-09-19T06:22:09;14.00;99.90
64143;DHT22;50437;51.970;5.904;2023-09-19T06:24:41;14.00;99.90
64143;DHT22;50437;51.970;5.904;2023-09-19T06:27:07;14.10;99.90
64143;DHT22;50437;51.970;5.904;2023-09-19T06:29:33;14.10;99.90
64143;DHT22;50437;51.970;5.904;2023-09-19T06:32:00;14.00;99.90
64143;DHT22;50437;51.970;5.904;2023-09-19T06:34:27;14.20;99.90
64143;DHT22;50437;51.970;5.904;2023-09-19T06:37:17;14.30;99.90
64143;DHT22;50437;51.970;5.904;2023-09-19T06:39:47;14.30;99.90
64143;DHT22;50437;51.970;5.904;2023-09-19T06:42:16;14.40;99.90
64143;DHT22;50437;51.970;5.904;2023-09-19T06:44:49;14.40;99.90
64143;DHT22;50437;51.970;5.904;2023-09-19T06:47:41;14.40;99.90
64143;DHT22;50437;51.970;5.904;2023-09-19T06:50:08;14.50;99.90
64143;DHT22;50437;51.970;5.904;2023-09-19T06:52:41;14.50;99.90
64143;DHT22;50437;51.970;5.904;2023-09-19T06:55:10;14.50;99.90
64143;DHT22;50437;51.970;5.904;2023-09-19T06:57:39;14.60;99.90
64143;DHT22;50437;51.970;5.904;2023-09-19T07:00:12;14.60;99.90
64143;DHT22;50437;51.970;5.904;2023-09-19T07:02:44;14.70;99.90
64143;DHT22;50437;51.970;5.904;2023-09-19T07:05:14;14.80;99.90
64143;DHT22;50437;51.970;5.904;2023-09-19T07:07:46;14.80;99.90
64143;DHT22;50437;51.970;5.904;2023-09-19T07:10:14;14.80;99.90
64143;DHT22;50437;51.970;5.904;2023-09-19T07:12:41;14.90;99.90
64143;DHT22;50437;51.970;5.904;2023-09-19T07:15:11;14.90;99.90
64143;DHT22;50437;51.970;5.904;2023-09-19T07:17:37;14.90;99.90
64143;DHT22;50437;51.970;5.904;2023-09-19T07:20:05;15.00;99.90
64143;DHT22;50437;51.970;5.904;2023-09-19T07:22:59;15.00;99.90
64143;DHT22;50437;51.970;5.904;2023-09-19T07:25:35;15.00;99.90
64143;DHT22;50437;51.970;5.904;2023-09-19T07:28:05;15.10;99.90
64143;DHT22;50437;51.970;5.904;2023-09-19T07:30:43;15.20;99.90
64143;DHT22;50437;51.970;5.904;2023-09-19T07:33:10;15.20;99.90
64143;DHT22;50437;51.970;5.904;2023-09-19T07:35:37;15.20;99.90
64143;DHT22;50437;51.970;5.904;2023-09-19T07:38:06;15.30;99.90
64143;DHT22;50437;51.970;5.904;2023-09-19T07:40:32;15.50;99.90
64143;DHT22;50437;51.970;5.904;2023-09-19T07:42:58;15.60;99.90
64143;DHT22;50437;51.970;5.904;2023-09-19T07:45:27;15.60;99.90
64143;DHT22;50437;51.970;5.904;2023-09-19T07:47:55;15.60;99.90
64143;DHT22;50437;51.970;5.904;2023-09-19T07:50:21;15.50;99.90
64143;DHT22;50437;51.970;5.904;2023-09-19T07:52:48;15.70;99.90
64143;DHT22;50437;51.970;5.904;2023-09-19T07:55:16;15.60;99.90
64143;DHT22;50437;51.970;5.904;2023-09-19T07:57:43;15.70;99.90
64143;DHT22;50437;51.970;5.904;2023-09-19T08:00:09;15.70;99.90
64143;DHT22;50437;51.970;5.904;2023-09-19T08:02:41;15.70;99.90
64143;DHT22;50437;51.970;5.904;2023-09-19T08:05:08;15.80;99.90
64143;DHT22;50437;51.970;5.904;2023-09-19T08:07:37;15.90;99.90
64143;DHT22;50437;51.970;5.904;2023-09-19T08:10:04;15.90;99.90
64143;DHT22;50437;51.970;5.904;2023-09-19T08:12:36;15.80;99.90
64143;DHT22;50437;51.970;5.904;2023-09-19T08:15:02;15.90;99.90
64143;DHT22;50437;51.970;5.904;2023-09-19T08:17:28;15.90;99.90
64143;DHT22;50437;51.970;5.904;2023-09-19T08:19:55;16.00;99.90
64143;DHT22;50437;51.970;5.904;2023-09-19T08:22:21;16.10;99.90
64143;DHT22;50437;51.970;5.904;2023-09-19T08:24:49;16.10;99.90
64143;DHT22;50437;51.970;5.904;2023-09-19T08:27:15;16.10;99.90
64143;DHT22;50437;51.970;5.904;2023-09-19T08:29:44;16.20;99.90
64143;DHT22;50437;51.970;5.904;2023-09-19T08:32:10;16.30;99.90
64143;DHT22;50437;51.970;5.904;2023-09-19T08:34:36;16.50;99.90
64143;DHT22;50437;51.970;5.904;2023-09-19T08:37:04;16.50;99.90
64143;DHT22;50437;51.970;5.904;2023-09-19T08:39:30;16.60;99.90
64143;DHT22;50437;51.970;5.904;2023-09-19T08:41:59;16.80;99.90
64143;DHT22;50437;51.970;5.904;2023-09-19T08:44:25;17.00;99.90
64143;DHT22;50437;51.970;5.904;2023-09-19T08:46:54;17.70;99.90
64143;DHT22;50437;51.970;5.904;2023-09-19T08:49:38;18.10;99.90
64143;DHT22;50437;51.970;5.904;2023-09-19T08:52:10;18.60;99.90
64143;DHT22;50437;51.970;5.904;2023-09-19T08:54:40;18.80;99.90
64143;DHT22;50437;51.970;5.904;2023-09-19T08:57:07;18.70;99.90
64143;DHT22;50437;51.970;5.904;2023-09-19T08:59:37;18.90;99.90
64143;DHT22;50437;51.970;5.904;2023-09-19T09:02:26;18.70;99.90
64143;DHT22;50437;51.970;5.904;2023-09-19T09:04:53;18.80;99.90
64143;DHT22;50437;51.970;5.904;2023-09-19T09:07:20;19.00;99.90
64143;DHT22;50437;51.970;5.904;2023-09-19T09:09:47;19.40;99.90
64143;DHT22;50437;51.970;5.904;2023-09-19T09:12:14;19.70;99.90
64143;DHT22;50437;51.970;5.904;2023-09-19T09:14:47;19.70;99.90
64143;DHT22;50437;51.970;5.904;2023-09-19T09:17:16;20.10;99.90
64143;DHT22;50437;51.970;5.904;2023-09-19T09:19:46;20.40;99.90
64143;DHT22;50437;51.970;5.904;2023-09-19T09:22:13;20.40;99.90
64143;DHT22;50437;51.970;5.904;2023-09-19T09:24:52;20.60;99.90
64143;DHT22;50437;51.970;5.904;2023-09-19T09:27:19;20.90;99.90
64143;DHT22;50437;51.970;5.904;2023-09-19T09:29:48;21.40;99.90
64143;DHT22;50437;51.970;5.904;2023-09-19T09:32:16;21.30;99.90
64143;DHT22;50437;51.970;5.904;2023-09-19T09:34:44;20.70;99.90
64143;DHT22;50437;51.970;5.904;2023-09-19T09:37:14;20.40;99.90
64143;DHT22;50437;51.970;5.904;2023-09-19T09:39:42;20.50;99.90
64143;DHT22;50437;51.970;5.904;2023-09-19T09:42:28;20.60;99.90
64143;DHT22;50437;51.970;5.904;2023-09-19T09:47:59;20.20;99.90
64143;DHT22;50437;51.970;5.904;2023-09-19T09:50:33;20.80;99.90
64143;DHT22;50437;51.970;5.904;2023-09-19T09:53:22;21.60;99.90
64143;DHT22;50437;51.970;5.904;2023-09-19T09:56:04;21.80;99.90
64143;DHT22;50437;51.970;5.904;2023-09-19T09:58:37;21.80;99.90
64143;DHT22;50437;51.970;5.904;2023-09-19T10:01:04;22.00;99.90
64143;DHT22;50437;51.970;5.904;2023-09-19T10:03:37;21.40;99.90
64143;DHT22;50437;51.970;5.904;2023-09-19T10:06:07;21.90;99.90
64143;DHT22;50437;51.970;5.904;2023-09-19T10:08:57;22.00;99.90
64143;DHT22;50437;51.970;5.904;2023-09-19T10:11:28;22.10;99.90
64143;DHT22;50437;51.970;5.904;2023-09-19T10:13:57;22.20;99.90
64143;DHT22;50437;51.970;5.904;2023-09-19T10:16:29;22.30;99.90
64143;DHT22;50437;51.970;5.904;2023-09-19T10:18:56;22.20;99.90
64143;DHT22;50437;51.970;5.904;2023-09-19T10:21:24;22.60;99.90
64143;DHT22;50437;51.970;5.904;2023-09-19T10:23:50;22.80;99.90
64143;DHT22;50437;51.970;5.904;2023-09-19T10:26:18;23.00;99.90
64143;DHT22;50437;51.970;5.904;2023-09-19T10:28:46;22.90;99.90
64143;DHT22;50437;51.970;5.904;2023-09-19T10:31:13;22.10;99.90
64143;DHT22;50437;51.970;5.904;2023-09-19T10:33:50;21.30;99.90
64143;DHT22;50437;51.970;5.904;2023-09-19T10:36:17;21.30;99.90
64143;DHT22;50437;51.970;5.904;2023-09-19T10:38:44;21.90;99.90
64143;DHT22;50437;51.970;5.904;2023-09-19T10:41:11;21.40;99.90
64143;DHT22;50437;51.970;5.904;2023-09-19T10:43:40;21.40;99.90
64143;DHT22;50437;51.970;5.904;2023-09-19T10:46:10;21.50;99.90
64143;DHT22;50437;51.970;5.904;2023-09-19T10:48:38;22.10;99.90
64143;DHT22;50437;51.970;5.904;2023-09-19T10:51:12;21.50;99.90
64143;DHT22;50437;51.970;5.904;2023-09-19T10:53:45;21.10;99.90
64143;DHT22;50437;51.970;5.904;2023-09-19T10:56:16;20.80;99.90
64143;DHT22;50437;51.970;5.904;2023-09-19T10:58:43;20.50;99.90
64143;DHT22;50437;51.970;5.904;2023-09-19T11:01:11;20.70;99.90
64143;DHT22;50437;51.970;5.904;2023-09-19T11:03:44;20.20;99.90
64143;DHT22;50437;51.970;5.904;2023-09-19T11:06:16;19.90;99.90
64143;DHT22;50437;51.970;5.904;2023-09-19T11:08:51;19.70;99.90
64143;DHT22;50437;51.970;5.904;2023-09-19T11:17:21;19.70;99.90
64143;DHT22;50437;51.970;5.904;2023-09-19T11:20:14;19.80;99.90
64143;DHT22;50437;51.970;5.904;2023-09-19T11:22:14;19.90;99.90
64143;DHT22;50437;51.970;5.904;2023-09-19T11:24:40;19.70;99.90
64143;DHT22;50437;51.970;5.904;2023-09-19T11:27:11;20.00;99.90
64143;DHT22;50437;51.970;5.904;2023-09-19T11:29:39;20.10;99.90
64143;DHT22;50437;51.970;5.904;2023-09-19T11:32:08;20.10;99.90
64143;DHT22;50437;51.970;5.904;2023-09-19T11:37:02;19.90;99.90
64143;DHT22;50437;51.970;5.904;2023-09-19T11:39:30;19.90;99.90
64143;DHT22;50437;51.970;5.904;2023-09-19T11:41:56;20.00;99.90
64143;DHT22;50437;51.970;5.904;2023-09-19T11:49:18;20.20;99.90
64143;DHT22;50437;51.970;5.904;2023-09-19T11:51:52;20.40;99.90
64143;DHT22;50437;51.970;5.904;2023-09-19T11:54:18;20.30;99.90
64143;DHT22;50437;51.970;5.904;2023-09-19T11:56:48;20.30;99.90
64143;DHT22;50437;51.970;5.904;2023-09-19T11:59:21;20.40;99.90
64143;DHT22;50437;51.970;5.904;2023-09-19T12:01:50;20.60;99.90
64143;DHT22;50437;51.970;5.904;2023-09-19T12:04:20;20.90;99.90
64143;DHT22;50437;51.970;5.904;2023-09-19T12:06:56;21.40;99.90
64143;DHT22;50437;51.970;5.904;2023-09-19T12:09:22;21.20;99.90
64143;DHT22;50437;51.970;5.904;2023-09-19T12:11:50;21.30;99.90
64143;DHT22;50437;51.970;5.904;2023-09-19T12:14:23;21.30;99.90
64143;DHT22;50437;51.970;5.904;2023-09-19T12:16:53;20.90;99.90
64143;DHT22;50437;51.970;5.904;2023-09-19T12:19:21;20.80;99.90
64143;DHT22;50437;51.970;5.904;2023-09-19T12:21:57;20.90;99.90
64143;DHT22;50437;51.970;5.904;2023-09-19T12:24:24;20.80;99.90
64143;DHT22;50437;51.970;5.904;2023-09-19T12:27:02;20.90;99.90
64143;DHT22;50437;51.970;5.904;2023-09-19T12:29:31;21.20;99.90
64143;DHT22;50437;51.970;5.904;2023-09-19T12:32:00;21.40;99.90
64143;DHT22;50437;51.970;5.904;2023-09-19T12:34:30;21.30;99.90
64143;DHT22;50437;51.970;5.904;2023-09-19T12:37:10;21.30;99.90
64143;DHT22;50437;51.970;5.904;2023-09-19T12:39:49;21.10;99.90
64143;DHT22;50437;51.970;5.904;2023-09-19T12:42:17;20.70;99.90
64143;DHT22;50437;51.970;5.904;2023-09-19T12:44:44;20.70;99.90
64143;DHT22;50437;51.970;5.904;2023-09-19T12:47:10;20.40;99.90
64143;DHT22;50437;51.970;5.904;2023-09-19T12:50:04;20.30;99.90
64143;DHT22;50437;51.970;5.904;2023-09-19T12:52:23;20.00;99.90
64143;DHT22;50437;51.970;5.904;2023-09-19T12:54:51;20.00;99.90
64143;DHT22;50437;51.970;5.904;2023-09-19T12:57:24;20.00;99.90
64143;DHT22;50437;51.970;5.904;2023-09-19T12:59:52;19.90;99.90
64143;DHT22;50437;51.970;5.904;2023-09-19T13:02:18;19.80;99.90
64143;DHT22;50437;51.970;5.904;2023-09-19T13:04:52;19.80;99.90
64143;DHT22;50437;51.970;5.904;2023-09-19T13:10:04;19.60;99.90
64143;DHT22;50437;51.970;5.904;2023-09-19T13:12:34;19.80;99.90
64143;DHT22;50437;51.970;5.904;2023-09-19T13:15:12;19.70;99.90
64143;DHT22;50437;51.970;5.904;2023-09-19T13:17:56;19.80;99.90
64143;DHT22;50437;51.970;5.904;2023-09-19T13:20:26;19.90;99.90
64143;DHT22;50437;51.970;5.904;2023-09-19T13:22:55;20.00;99.90
64143;DHT22;50437;51.970;5.904;2023-09-19T13:25:32;19.90;99.90
64143;DHT22;50437;51.970;5.904;2023-09-19T13:27:59;19.80;99.90
64143;DHT22;50437;51.970;5.904;2023-09-19T13:30:26;19.80;99.90
64143;DHT22;50437;51.970;5.904;2023-09-19T13:33:04;19.80;99.90
64143;DHT22;50437;51.970;5.904;2023-09-19T13:35:32;19.60;99.90
64143;DHT22;50437;51.970;5.904;2023-09-19T13:37:58;19.60;99.90
64143;DHT22;50437;51.970;5.904;2023-09-19T13:40:24;19.60;99.90
64143;DHT22;50437;51.970;5.904;2023-09-19T13:42:56;19.40;99.90
64143;DHT22;50437;51.970;5.904;2023-09-19T13:45:22;19.40;99.90
64143;DHT22;50437;51.970;5.904;2023-09-19T13:47:50;19.40;99.90
64143;DHT22;50437;51.970;5.904;2023-09-19T13:50:16;19.40;99.90
64143;DHT22;50437;51.970;5.904;2023-09-19T13:52:44;19.40;99.90
64143;DHT22;50437;51.970;5.904;2023-09-19T13:55:13;19.40;99.90
64143;DHT22;50437;51.970;5.904;2023-09-19T13:57:40;19.40;99.90
64143;DHT22;50437;51.970;5.904;2023-09-19T14:00:06;19.60;99.90
64143;DHT22;50437;51.970;5.904;2023-09-19T14:02:38;19.70;99.90
64143;DHT22;50437;51.970;5.904;2023-09-19T14:05:04;19.70;99.90
64143;DHT22;50437;51.970;5.904;2023-09-19T14:07:31;19.80;99.90
64143;DHT22;50437;51.970;5.904;2023-09-19T14:09:56;20.00;99.90
64143;DHT22;50437;51.970;5.904;2023-09-19T14:12:22;20.20;99.90
64143;DHT22;50437;51.970;5.904;2023-09-19T14:14:48;20.30;99.90
64143;DHT22;50437;51.970;5.904;2023-09-19T14:17:16;20.30;99.90
64143;DHT22;50437;51.970;5.904;2023-09-19T14:19:47;20.50;99.90
64143;DHT22;50437;51.970;5.904;2023-09-19T14:22:13;20.50;99.90
64143;DHT22;50437;51.970;5.904;2023-09-19T14:24:39;20.60;99.90
64143;DHT22;50437;51.970;5.904;2023-09-19T14:27:08;20.60;99.90
64143;DHT22;50437;51.970;5.904;2023-09-19T14:29:35;20.50;99.90
64143;DHT22;50437;51.970;5.904;2023-09-19T14:32:04;20.30;99.90
64143;DHT22;50437;51.970;5.904;2023-09-19T14:34:33;20.00;99.90
64143;DHT22;50437;51.970;5.904;2023-09-19T14:37:08;19.90;99.90
64143;DHT22;50437;51.970;5.904;2023-09-19T14:39:34;19.80;99.90
64143;DHT22;50437;51.970;5.904;2023-09-19T14:42:00;19.70;99.90
64143;DHT22;50437;51.970;5.904;2023-09-19T14:44:26;19.70;99.90
64143;DHT22;50437;51.970;5.904;2023-09-19T14:46:53;19.80;99.90
64143;DHT22;50437;51.970;5.904;2023-09-19T14:49:26;19.90;99.90
64143;DHT22;50437;51.970;5.904;2023-09-19T14:51:52;19.70;99.90
64143;DHT22;50437;51.970;5.904;2023-09-19T14:54:18;19.70;99.90
64143;DHT22;50437;51.970;5.904;2023-09-19T14:56:44;19.70;99.90
64143;DHT22;50437;51.970;5.904;2023-09-19T14:59:14;19.80;99.90
64143;DHT22;50437;51.970;5.904;2023-09-19T15:01:41;19.70;99.90
64143;DHT22;50437;51.970;5.904;2023-09-19T15:04:07;19.70;99.90
64143;DHT22;50437;51.970;5.904;2023-09-19T15:06:34;19.60;99.90
64143;DHT22;50437;51.970;5.904;2023-09-19T15:09:00;19.50;99.90
64143;DHT22;50437;51.970;5.904;2023-09-19T15:11:26;19.50;99.90
64143;DHT22;50437;51.970;5.904;2023-09-19T15:13:52;19.50;99.90
64143;DHT22;50437;51.970;5.904;2023-09-19T15:16:19;19.40;99.90
64143;DHT22;50437;51.970;5.904;2023-09-19T15:18:45;19.40;99.90
64143;DHT22;50437;51.970;5.904;2023-09-19T15:21:14;19.30;99.90
64143;DHT22;50437;51.970;5.904;2023-09-19T15:23:41;19.30;99.90
64143;DHT22;50437;51.970;5.904;2023-09-19T15:26:09;19.20;99.90
64143;DHT22;50437;51.970;5.904;2023-09-19T15:28:39;19.20;99.90
64143;DHT22;50437;51.970;5.904;2023-09-19T15:31:09;19.20;99.90
64143;DHT22;50437;51.970;5.904;2023-09-19T15:33:36;19.20;99.90
64143;DHT22;50437;51.970;5.904;2023-09-19T15:41:20;19.10;99.90
64143;DHT22;50437;51.970;5.904;2023-09-19T15:43:49;19.10;99.90
64143;DHT22;50437;51.970;5.904;2023-09-19T15:46:18;19.00;99.90
64143;DHT22;50437;51.970;5.904;2023-09-19T15:48:45;19.00;99.90
64143;DHT22;50437;51.970;5.904;2023-09-19T15:51:12;19.00;99.90
64143;DHT22;50437;51.970;5.904;2023-09-19T15:53:42;19.00;99.90
64143;DHT22;50437;51.970;5.904;2023-09-19T15:56:10;19.00;99.90
64143;DHT22;50437;51.970;5.904;2023-09-19T15:58:46;19.00;99.90
64143;DHT22;50437;51.970;5.904;2023-09-19T16:01:13;18.90;99.90
64143;DHT22;50437;51.970;5.904;2023-09-19T16:03:44;19.00;99.90
64143;DHT22;50437;51.970;5.904;2023-09-19T16:06:12;18.90;99.90
64143;DHT22;50437;51.970;5.904;2023-09-19T16:08:42;19.00;99.90
64143;DHT22;50437;51.970;5.904;2023-09-19T16:11:08;19.00;99.90
64143;DHT22;50437;51.970;5.904;2023-09-19T16:13:38;19.00;99.90
64143;DHT22;50437;51.970;5.904;2023-09-19T16:16:08;18.90;99.90
64143;DHT22;50437;51.970;5.904;2023-09-19T16:18:54;19.00;99.90
64143;DHT22;50437;51.970;5.904;2023-09-19T16:24:03;18.90;99.90
64143;DHT22;50437;51.970;5.904;2023-09-19T16:29:18;18.90;99.90
64143;DHT22;50437;51.970;5.904;2023-09-19T16:31:59;18.90;99.90
64143;DHT22;50437;51.970;5.904;2023-09-19T16:34:28;18.90;99.90
64143;DHT22;50437;51.970;5.904;2023-09-19T16:37:03;18.80;99.90
64143;DHT22;50437;51.970;5.904;2023-09-19T16:39:29;18.80;99.90
64143;DHT22;50437;51.970;5.904;2023-09-19T16:41:58;18.80;99.90
64143;DHT22;50437;51.970;5.904;2023-09-19T16:44:25;18.80;99.90
64143;DHT22;50437;51.970;5.904;2023-09-19T16:46:52;18.80;99.90
64143;DHT22;50437;51.970;5.904;2023-09-19T16:49:18;18.80;99.90
64143;DHT22;50437;51.970;5.904;2023-09-19T16:51:46;18.70;99.90
64143;DHT22;50437;51.970;5.904;2023-09-19T16:54:17;18.70;99.90
64143;DHT22;50437;51.970;5.904;2023-09-19T16:56:47;18.80;99.90
64143;DHT22;50437;51.970;5.904;2023-09-19T16:59:17;18.70;99.90
64143;DHT22;50437;51.970;5.904;2023-09-19T17:01:48;18.70;99.90
64143;DHT22;50437;51.970;5.904;2023-09-19T17:04:14;18.70;99.90
64143;DHT22;50437;51.970;5.904;2023-09-19T17:06:42;18.70;99.90
64143;DHT22;50437;51.970;5.904;2023-09-19T17:09:21;18.70;99.90
64143;DHT22;50437;51.970;5.904;2023-09-19T17:11:57;18.70;99.90
64143;DHT22;50437;51.970;5.904;2023-09-19T17:14:28;18.70;99.90
64143;DHT22;50437;51.970;5.904;2023-09-19T17:16:55;18.70;99.90
64143;DHT22;50437;51.970;5.904;2023-09-19T17:19:23;18.60;99.90
64143;DHT22;50437;51.970;5.904;2023-09-19T17:21:55;18.60;99.90
64143;DHT22;50437;51.970;5.904;2023-09-19T17:24:21;18.60;99.90
64143;DHT22;50437;51.970;5.904;2023-09-19T17:26:48;18.60;99.90
64143;DHT22;50437;51.970;5.904;2023-09-19T17:29:19;18.60;99.90
64143;DHT22;50437;51.970;5.904;2023-09-19T17:31:46;18.50;99.90
64143;DHT22;50437;51.970;5.904;2023-09-19T17:34:12;18.50;99.90
64143;DHT22;50437;51.970;5.904;2023-09-19T17:36:41;18.40;99.90
64143;DHT22;50437;51.970;5.904;2023-09-19T17:39:08;18.40;99.90
64143;DHT22;50437;51.970;5.904;2023-09-19T17:41:38;18.30;99.90
64143;DHT22;50437;51.970;5.904;2023-09-19T17:44:15;18.30;99.90
64143;DHT22;50437;51.970;5.904;2023-09-19T17:46:41;18.20;99.90
64143;DHT22;50437;51.970;5.904;2023-09-19T17:49:15;18.20;99.90
64143;DHT22;50437;51.970;5.904;2023-09-19T17:51:48;18.10;99.90
64143;DHT22;50437;51.970;5.904;2023-09-19T17:54:18;18.00;99.90
64143;DHT22;50437;51.970;5.904;2023-09-19T17:56:49;17.90;99.90
64143;DHT22;50437;51.970;5.904;2023-09-19T17:59:31;18.10;99.90
64143;DHT22;50437;51.970;5.904;2023-09-19T18:02:01;17.90;99.90
64143;DHT22;50437;51.970;5.904;2023-09-19T18:04:41;17.90;99.90